sensor_id;sensor_type;location;lat;lon;timestamp;temperature;humidity
2955;DHT22;1487;51.470;6.938;2023-09-19T00:00:06;15.40;99.90
2955;DHT22;1487;51.470;6.938;2023-09-19T00:02:38;15.40;99.90
2955;DHT22;1487;51.470;6.938;2023-09-19T00:05:05;15.30;99.90
2955;DHT22;1487;51.470;6.938;2023-09-19T00:07:34;15.30;99.90
2955;DHT22;1487;51.470;6.938;2023-09-19T00:10:02;15.30;99.90
2955;DHT22;1487;51.470;6.938;2023-09-19T00:12:30;15.30;99.90
2955;DHT22;1487;51.470;6.938;2023-09-19T00:14:57;15.30;99.90
2955;DHT22;1487;51.470;6.938;2023-09-19T00:17:26;15.20;99.90
2955;DHT22;1487;51.470;6.938;2023-09-19T00:19:56;15.20;99.90
2955;DHT22;1487;51.470;6.938;2023-09-19T00:22:22;15.20;99.90
2955;DHT22;1487;51.470;6.938;2023-09-19T00:24:51;15.20;99.90
2955;DHT22;1487;51.470;6.938;2023-09-19T00:27:19;15.20;99.90
2955;DHT22;1487;51.470;6.938;2023-09-19T00:29:46;15.20;99.90
2955;DHT22;1487;51.470;6.938;2023-09-19T00:32:12;15.20;99.90
2955;DHT22;1487;51.470;6.938;2023-09-19T00:34:40;15.20;99.90
2955;DHT22;1487;51.470;6.938;2023-09-19T00:37:08;15.20;99.90
2955;DHT22;1487;51.470;6.938;2023-09-19T00:39:36;15.10;99.90
2955;DHT22;1487;51.470;6.938;2023-09-19T00:42:04;15.10;99.90
2955;DHT22;1487;51.470;6.938;2023-09-19T00:44:30;15.10;99.90
2955;DHT22;1487;51.470;6.938;2023-09-19T00:47:00;15.10;99.90
2955;DHT22;1487;51.470;6.938;2023-09-19T00:49:27;15.00;99.90
2955;DHT22;1487;51.470;6.938;2023-09-19T00:51:57;15.00;99.90
2955;DHT22;1487;51.470;6.938;2023-09-19T00:54:25;14.90;99.90
2955;DHT22;1487;51.470;6.938;2023-09-19T00:56:53;14.90;99.90
2955;DHT22;1487;51.470;6.938;2023-09-19T00:59:20;14.90;99.90
2955;DHT22;1487;51.470;6.938;2023-09-19T01:01:48;14.90;99.90
2955;DHT22;1487;51.470;6.938;2023-09-19T01:04:18;14.90;99.90
2955;DHT22;1487;51.470;6.938;2023-09-19T01:06:45;14.90;99.90
2955;DHT22;1487;51.470;6.938;2023-09-19T01:09:13;14.90;99.90
2955;DHT22;1487;51.470;6.938;2023-09-19T01:11:43;14.90;99.90
2955;DHT22;1487;51.470;6.938;2023-09-19T01:14:19;14.80;99.90
2955;DHT22;1487;51.470;6.938;2023-09-19T01:16:53;14.80;99.90
2955;DHT22;1487;51.470;6.938;2023-09-19T01:19:53;14.80;99.90
2955;DHT22;1487;51.470;6.938;2023-09-19T01:22:29;14.80;99.90
2955;DHT22;1487;51.470;6.938;2023-09-19T01:28:30;14.70;99.90
2955;DHT22;1487;51.470;6.938;2023-09-19T01:31:04;14.70;99.90
2955;DHT22;1487;51.470;6.938;2023-09-19T01:33:56;14.70;99.90
2955;DHT22;1487;51.470;6.938;2023-09-19T01:36:28;14.70;99.90
2955;DHT22;1487;51.470;6.938;2023-09-19T01:38:57;14.70;99.90
2955;DHT22;1487;51.470;6.938;2023-09-19T01:41:41;14.70;99.90
2955;DHT22;1487;51.470;6.938;2023-09-19T01:44:11;14.70;99.90
2955;DHT22;1487;51.470;6.938;2023-09-19T01:46:41;14.70;99.90
2955;DHT22;1487;51.470;6.938;2023-09-19T01:49:18;14.70;99.90
2955;DHT22;1487;51.470;6.938;2023-09-19T01:52:04;14.70;99.90
2955;DHT22;1487;51.470;6.938;2023-09-19T01:54:36;14.60;99.90
2955;DHT22;1487;51.470;6.938;2023-09-19T01:57:10;14.60;99.90
2955;DHT22;1487;51.470;6.938;2023-09-19T01:59:45;14.60;99.90
2955;DHT22;1487;51.470;6.938;2023-09-19T02:02:14;14.70;99.90
2955;DHT22;1487;51.470;6.938;2023-09-19T02:04:43;14.60;99.90
2955;DHT22;1487;51.470;6.938;2023-09-19T02:07:10;14.60;99.90
2955;DHT22;1487;51.470;6.938;2023-09-19T02:09:37;14.60;99.90
2955;DHT22;1487;51.470;6.938;2023-09-19T02:12:05;14.60;99.90
2955;DHT22;1487;51.470;6.938;2023-09-19T02:14:32;14.60;99.90
2955;DHT22;1487;51.470;6.938;2023-09-19T02:16:59;14.60;99.90
2955;DHT22;1487;51.470;6.938;2023-09-19T02:19:27;14.60;99.90
2955;DHT22;1487;51.470;6.938;2023-09-19T02:21:55;14.60;99.90
2955;DHT22;1487;51.470;6.938;2023-09-19T02:24:22;14.60;99.90
2955;DHT22;1487;51.470;6.938;2023-09-19T02:26:49;14.60;99.90
2955;DHT22;1487;51.470;6.938;2023-09-19T02:29:16;14.60;99.90
2955;DHT22;1487;51.470;6.938;2023-09-19T02:31:43;14.50;99.90
2955;DHT22;1487;51.470;6.938;2023-09-19T02:34:11;14.50;99.90
2955;DHT22;1487;51.470;6.938;2023-09-19T02:36:43;14.50;99.90
2955;DHT22;1487;51.470;6.938;2023-09-19T02:39:10;14.50;99.90
2955;DHT22;1487;51.470;6.938;2023-09-19T02:41:38;14.50;99.90
2955;DHT22;1487;51.470;6.938;2023-09-19T02:44:07;14.50;99.90
2955;DHT22;1487;51.470;6.938;2023-09-19T02:46:34;14.50;99.90
2955;DHT22;1487;51.470;6.938;2023-09-19T02:49:02;14.50;99.90
2955;DHT22;1487;51.470;6.938;2023-09-19T02:51:30;14.50;99.90
2955;DHT22;1487;51.470;6.938;2023-09-19T02:53:59;14.50;99.90
2955;DHT22;1487;51.470;6.938;2023-09-19T02:56:26;14.50;99.90
2955;DHT22;1487;51.470;6.938;2023-09-19T02:58:53;14.50;99.90
2955;DHT22;1487;51.470;6.938;2023-09-19T03:01:20;14.50;99.90
2955;DHT22;1487;51.470;6.938;2023-09-19T03:03:47;14.50;99.90
2955;DHT22;1487;51.470;6.938;2023-09-19T03:06:15;14.50;99.90
2955;DHT22;1487;51.470;6.938;2023-09-19T03:08:45;14.50;99.90
2955;DHT22;1487;51.470;6.938;2023-09-19T03:11:16;14.40;99.90
2955;DHT22;1487;51.470;6.938;2023-09-19T03:13:50;14.40;99.90
2955;DHT22;1487;51.470;6.938;2023-09-19T03:16:16;14.40;99.90
2955;DHT22;1487;51.470;6.938;2023-09-19T03:18:44;14.40;99.90
2955;DHT22;1487;51.470;6.938;2023-09-19T03:21:12;14.40;99.90
2955;DHT22;1487;51.470;6.938;2023-09-19T03:23:40;14.40;99.90
2955;DHT22;1487;51.470;6.938;2023-09-19T03:26:08;14.40;99.90
2955;DHT22;1487;51.470;6.938;2023-09-19T03:28:37;14.40;99.90
2955;DHT22;1487;51.470;6.938;2023-09-19T03:31:05;14.40;99.90
2955;DHT22;1487;51.470;6.938;2023-09-19T03:33:33;14.40;99.90
2955;DHT22;1487;51.470;6.938;2023-09-19T03:36:00;14.30;99.90
2955;DHT22;1487;51.470;6.938;2023-09-19T03:38:30;14.30;99.90
2955;DHT22;1487;51.470;6.938;2023-09-19T03:40:57;14.30;99.90
2955;DHT22;1487;51.470;6.938;2023-09-19T03:43:24;14.30;99.90
2955;DHT22;1487;51.470;6.938;2023-09-19T03:45:52;14.30;99.90
2955;DHT22;1487;51.470;6.938;2023-09-19T03:48:19;14.30;99.90
2955;DHT22;1487;51.470;6.938;2023-09-19T03:50:47;14.30;99.90
2955;DHT22;1487;51.470;6.938;2023-09-19T03:53:14;14.20;99.90
2955;DHT22;1487;51.470;6.938;2023-09-19T03:55:40;14.20;99.90
2955;DHT22;1487;51.470;6.938;2023-09-19T03:58:07;14.20;99.90
2955;DHT22;1487;51.470;6.938;2023-09-19T04:00:34;14.20;99.90
2955;DHT22;1487;51.470;6.938;2023-09-19T04:03:03;14.20;99.90
2955;DHT22;1487;51.470;6.938;2023-09-19T04:05:31;14.20;99.90
2955;DHT22;1487;51.470;6.938;2023-09-19T04:07:59;14.20;99.90
2955;DHT22;1487;51.470;6.938;2023-09-19T04:10:26;14.20;99.90
2955;DHT22;1487;51.470;6.938;2023-09-19T04:12:54;14.10;99.90
2955;DHT22;1487;51.470;6.938;2023-09-19T04:15:21;14.10;99.90
2955;DHT22;1487;51.470;6.938;2023-09-19T04:17:49;14.10;99.90
2955;DHT22;1487;51.470;6.938;2023-09-19T04:20:17;14.10;99.90
2955;DHT22;1487;51.470;6.938;2023-09-19T04:22:45;14.10;99.90
2955;DHT22;1487;51.470;6.938;2023-09-19T04:25:11;14.10;99.90
2955;DHT22;1487;51.470;6.938;2023-09-19T04:27:38;14.10;99.90
2955;DHT22;1487;51.470;6.938;2023-09-19T04:30:07;14.10;99.90
2955;DHT22;1487;51.470;6.938;2023-09-19T04:32:35;14.10;99.90
2955;DHT22;1487;51.470;6.938;2023-09-19T04:35:04;14.10;99.90
2955;DHT22;1487;51.470;6.938;2023-09-19T04:37:37;14.10;99.90
2955;DHT22;1487;51.470;6.938;2023-09-19T04:40:07;14.10;99.90
2955;DHT22;1487;51.470;6.938;2023-09-19T04:42:38;14.10;99.90
2955;DHT22;1487;51.470;6.938;2023-09-19T04:45:06;14.10;99.90
2955;DHT22;1487;51.470;6.938;2023-09-19T04:47:33;14.10;99.90
2955;DHT22;1487;51.470;6.938;2023-09-19T04:50:00;14.10;99.90
2955;DHT22;1487;51.470;6.938;2023-09-19T04:52:26;14.10;99.90
2955;DHT22;1487;51.470;6.938;2023-09-19T04:54:54;14.00;99.90
2955;DHT22;1487;51.470;6.938;2023-09-19T04:57:21;14.10;99.90
2955;DHT22;1487;51.470;6.938;2023-09-19T04:59:48;14.00;99.90
2955;DHT22;1487;51.470;6.938;2023-09-19T05:02:15;14.00;99.90
2955;DHT22;1487;51.470;6.938;2023-09-19T05:04:42;14.00;99.90
2955;DHT22;1487;51.470;6.938;2023-09-19T05:07:09;14.00;99.90
2955;DHT22;1487;51.470;6.938;2023-09-19T05:09:36;14.00;99.90
2955;DHT22;1487;51.470;6.938;2023-09-19T05:12:05;14.10;99.90
2955;DHT22;1487;51.470;6.938;2023-09-19T05:14:32;14.10;99.90
2955;DHT22;1487;51.470;6.938;2023-09-19T05:16:58;14.10;99.90
2955;DHT22;1487;51.470;6.938;2023-09-19T05:19:25;14.10;99.90
2955;DHT22;1487;51.470;6.938;2023-09-19T05:21:52;14.10;99.90
2955;DHT22;1487;51.470;6.938;2023-09-19T05:24:20;14.10;99.90
2955;DHT22;1487;51.470;6.938;2023-09-19T05:26:48;14.10;99.90
2955;DHT22;1487;51.470;6.938;2023-09-19T05:29:16;14.10;99.90
2955;DHT22;1487;51.470;6.938;2023-09-19T05:31:43;14.10;99.90
2955;DHT22;1487;51.470;6.938;2023-09-19T05:34:10;14.10;99.90
2955;DHT22;1487;51.470;6.938;2023-09-19T05:36:37;14.20;99.90
2955;DHT22;1487;51.470;6.938;2023-09-19T05:39:05;14.20;99.90
2955;DHT22;1487;51.470;6.938;2023-09-19T05:41:34;14.20;99.90
2955;DHT22;1487;51.470;6.938;2023-09-19T05:44:02;14.20;99.90
2955;DHT22;1487;51.470;6.938;2023-09-19T05:46:30;14.30;99.90
2955;DHT22;1487;51.470;6.938;2023-09-19T05:48:57;14.30;99.90
2955;DHT22;1487;51.470;6.938;2023-09-19T05:51:24;14.40;99.90
2955;DHT22;1487;51.470;6.938;2023-09-19T05:53:54;14.40;99.90
2955;DHT22;1487;51.470;6.938;2023-09-19T05:56:21;14.50;99.90
2955;DHT22;1487;51.470;6.938;2023-09-19T05:58:48;14.50;99.90
2955;DHT22;1487;51.470;6.938;2023-09-19T06:01:17;14.50;99.90
2955;DHT22;1487;51.470;6.938;2023-09-19T06:03:45;14.60;99.90
2955;DHT22;1487;51.470;6.938;2023-09-19T06:06:12;14.60;99.90
2955;DHT22;1487;51.470;6.938;2023-09-19T06:08:39;14.60;99.90
2955;DHT22;1487;51.470;6.938;2023-09-19T06:11:05;14.60;99.90
2955;DHT22;1487;51.470;6.938;2023-09-19T06:13:34;14.70;99.90
2955;DHT22;1487;51.470;6.938;2023-09-19T06:16:01;14.70;99.90
2955;DHT22;1487;51.470;6.938;2023-09-19T06:18:30;14.80;99.90
2955;DHT22;1487;51.470;6.938;2023-09-19T06:21:00;14.80;99.90
2955;DHT22;1487;51.470;6.938;2023-09-19T06:23:32;14.90;99.90
2955;DHT22;1487;51.470;6.938;2023-09-19T06:25:59;14.80;99.90
2955;DHT22;1487;51.470;6.938;2023-09-19T06:28:26;14.90;99.90
2955;DHT22;1487;51.470;6.938;2023-09-19T06:30:53;14.90;99.90
2955;DHT22;1487;51.470;6.938;2023-09-19T06:33:20;14.90;99.90
2955;DHT22;1487;51.470;6.938;2023-09-19T06:35:48;14.90;99.90
2955;DHT22;1487;51.470;6.938;2023-09-19T06:38:16;15.00;99.90
2955;DHT22;1487;51.470;6.938;2023-09-19T06:40:44;15.00;99.90
2955;DHT22;1487;51.470;6.938;2023-09-19T06:43:11;15.00;99.90
2955;DHT22;1487;51.470;6.938;2023-09-19T06:45:38;15.00;99.90
2955;DHT22;1487;51.470;6.938;2023-09-19T06:48:05;15.10;99.90
2955;DHT22;1487;51.470;6.938;2023-09-19T06:50:32;15.00;99.90
2955;DHT22;1487;51.470;6.938;2023-09-19T06:53:00;15.00;99.90
2955;DHT22;1487;51.470;6.938;2023-09-19T06:55:29;15.10;99.90
2955;DHT22;1487;51.470;6.938;2023-09-19T06:57:57;15.10;99.90
2955;DHT22;1487;51.470;6.938;2023-09-19T07:00:24;15.20;99.90
2955;DHT22;1487;51.470;6.938;2023-09-19T07:02:58;15.20;99.90
2955;DHT22;1487;51.470;6.938;2023-09-19T07:05:27;15.20;99.90
2955;DHT22;1487;51.470;6.938;2023-09-19T07:07:54;15.40;99.90
2955;DHT22;1487;51.470;6.938;2023-09-19T07:10:21;15.40;99.90
2955;DHT22;1487;51.470;6.938;2023-09-19T07:12:55;15.40;99.90
2955;DHT22;1487;51.470;6.938;2023-09-19T07:15:22;15.50;99.90
2955;DHT22;1487;51.470;6.938;2023-09-19T07:17:50;15.50;99.90
2955;DHT22;1487;51.470;6.938;2023-09-19T07:20:18;15.50;99.90
2955;DHT22;1487;51.470;6.938;2023-09-19T07:22:45;15.50;99.90
2955;DHT22;1487;51.470;6.938;2023-09-19T07:25:11;15.50;99.90
2955;DHT22;1487;51.470;6.938;2023-09-19T07:27:39;15.60;99.90
2955;DHT22;1487;51.470;6.938;2023-09-19T07:30:09;15.60;99.90
2955;DHT22;1487;51.470;6.938;2023-09-19T07:32:35;15.70;99.90
2955;DHT22;1487;51.470;6.938;2023-09-19T07:35:04;15.80;99.90
2955;DHT22;1487;51.470;6.938;2023-09-19T07:37:31;15.90;99.90
2955;DHT22;1487;51.470;6.938;2023-09-19T07:39:59;15.90;99.90
2955;DHT22;1487;51.470;6.938;2023-09-19T07:42:26;16.00;99.90
2955;DHT22;1487;51.470;6.938;2023-09-19T07:44:53;15.90;99.90
2955;DHT22;1487;51.470;6.938;2023-09-19T07:47:21;16.00;99.90
2955;DHT22;1487;51.470;6.938;2023-09-19T07:49:48;16.00;99.90
2955;DHT22;1487;51.470;6.938;2023-09-19T07:52:15;16.00;99.90
2955;DHT22;1487;51.470;6.938;2023-09-19T07:54:42;16.00;99.90
2955;DHT22;1487;51.470;6.938;2023-09-19T07:57:09;16.10;99.90
2955;DHT22;1487;51.470;6.938;2023-09-19T07:59:36;16.30;99.90
2955;DHT22;1487;51.470;6.938;2023-09-19T08:02:04;16.30;99.90
2955;DHT22;1487;51.470;6.938;2023-09-19T08:04:32;16.30;99.90
2955;DHT22;1487;51.470;6.938;2023-09-19T08:06:59;16.30;99.90
2955;DHT22;1487;51.470;6.938;2023-09-19T08:09:29;16.50;99.90
2955;DHT22;1487;51.470;6.938;2023-09-19T08:11:58;16.60;99.90
2955;DHT22;1487;51.470;6.938;2023-09-19T08:14:29;16.80;99.90
2955;DHT22;1487;51.470;6.938;2023-09-19T08:16:56;17.00;99.90
2955;DHT22;1487;51.470;6.938;2023-09-19T08:19:24;16.90;99.90
2955;DHT22;1487;51.470;6.938;2023-09-19T08:21:55;17.00;99.90
2955;DHT22;1487;51.470;6.938;2023-09-19T08:24:24;17.10;99.90
2955;DHT22;1487;51.470;6.938;2023-09-19T08:26:53;17.20;99.90
2955;DHT22;1487;51.470;6.938;2023-09-19T08:29:20;17.30;99.90
2955;DHT22;1487;51.470;6.938;2023-09-19T08:31:53;17.50;99.90
2955;DHT22;1487;51.470;6.938;2023-09-19T08:34:20;17.60;99.90
2955;DHT22;1487;51.470;6.938;2023-09-19T08:36:47;17.60;99.90
2955;DHT22;1487;51.470;6.938;2023-09-19T08:39:15;17.80;99.90
2955;DHT22;1487;51.470;6.938;2023-09-19T08:41:44;18.10;99.90
2955;DHT22;1487;51.470;6.938;2023-09-19T08:44:10;18.20;99.90
2955;DHT22;1487;51.470;6.938;2023-09-19T08:46:40;18.80;99.90
2955;DHT22;1487;51.470;6.938;2023-09-19T08:49:11;19.10;99.90
2955;DHT22;1487;51.470;6.938;2023-09-19T08:51:41;19.30;99.90
2955;DHT22;1487;51.470;6.938;2023-09-19T08:54:19;19.30;99.90
2955;DHT22;1487;51.470;6.938;2023-09-19T08:56:49;19.40;99.90
2955;DHT22;1487;51.470;6.938;2023-09-19T08:59:17;19.10;99.90
2955;DHT22;1487;51.470;6.938;2023-09-19T09:01:49;19.20;99.90
2955;DHT22;1487;51.470;6.938;2023-09-19T09:04:19;19.20;99.90
2955;DHT22;1487;51.470;6.938;2023-09-19T09:06:46;19.00;99.90
2955;DHT22;1487;51.470;6.938;2023-09-19T09:09:14;18.80;99.90
2955;DHT22;1487;51.470;6.938;2023-09-19T09:11:42;19.00;99.90
2955;DHT22;1487;51.470;6.938;2023-09-19T09:14:09;19.20;99.90
2955;DHT22;1487;51.470;6.938;2023-09-19T09:16:37;19.60;99.90
2955;DHT22;1487;51.470;6.938;2023-09-19T09:19:05;20.10;99.90
2955;DHT22;1487;51.470;6.938;2023-09-19T09:21:32;19.80;99.90
2955;DHT22;1487;51.470;6.938;2023-09-19T09:24:28;19.70;99.90
2955;DHT22;1487;51.470;6.938;2023-09-19T09:26:57;20.10;99.90
2955;DHT22;1487;51.470;6.938;2023-09-19T09:29:42;19.60;99.90
2955;DHT22;1487;51.470;6.938;2023-09-19T09:32:20;19.60;99.90
2955;DHT22;1487;51.470;6.938;2023-09-19T09:34:49;19.40;99.90
2955;DHT22;1487;51.470;6.938;2023-09-19T09:37:17;19.50;99.90
2955;DHT22;1487;51.470;6.938;2023-09-19T09:39:49;19.80;99.90
2955;DHT22;1487;51.470;6.938;2023-09-19T09:42:31;19.90;99.90
2955;DHT22;1487;51.470;6.938;2023-09-19T09:45:14;19.60;99.90
2955;DHT22;1487;51.470;6.938;2023-09-19T09:47:42;20.00;99.90
2955;DHT22;1487;51.470;6.938;2023-09-19T09:50:23;20.30;99.90
2955;DHT22;1487;51.470;6.938;2023-09-19T09:52:55;20.00;99.90
2955;DHT22;1487;51.470;6.938;2023-09-19T09:55:28;20.00;99.90
2955;DHT22;1487;51.470;6.938;2023-09-19T09:58:17;20.20;99.90
2955;DHT22;1487;51.470;6.938;2023-09-19T10:00:55;20.50;99.90
2955;DHT22;1487;51.470;6.938;2023-09-19T10:03:35;20.30;99.90
2955;DHT22;1487;51.470;6.938;2023-09-19T10:06:06;20.10;99.90
2955;DHT22;1487;51.470;6.938;2023-09-19T10:09:03;19.70;99.90
2955;DHT22;1487;51.470;6.938;2023-09-19T10:11:40;19.50;99.90
2955;DHT22;1487;51.470;6.938;2023-09-19T10:14:11;19.90;99.90
2955;DHT22;1487;51.470;6.938;2023-09-19T10:16:41;20.20;99.90
2955;DHT22;1487;51.470;6.938;2023-09-19T10:19:16;20.00;99.90
2955;DHT22;1487;51.470;6.938;2023-09-19T10:21:46;20.00;99.90
2955;DHT22;1487;51.470;6.938;2023-09-19T10:24:14;20.80;99.90
2955;DHT22;1487;51.470;6.938;2023-09-19T10:26:42;21.20;99.90
2955;DHT22;1487;51.470;6.938;2023-09-19T10:29:13;21.10;99.90
2955;DHT22;1487;51.470;6.938;2023-09-19T10:31:42;21.60;99.90
2955;DHT22;1487;51.470;6.938;2023-09-19T10:34:14;21.50;99.90
2955;DHT22;1487;51.470;6.938;2023-09-19T10:36:44;21.60;99.90
2955;DHT22;1487;51.470;6.938;2023-09-19T10:39:14;21.30;99.90
2955;DHT22;1487;51.470;6.938;2023-09-19T10:41:47;20.70;99.90
2955;DHT22;1487;51.470;6.938;2023-09-19T10:44:21;20.60;99.90
2955;DHT22;1487;51.470;6.938;2023-09-19T10:46:50;21.10;99.90
2955;DHT22;1487;51.470;6.938;2023-09-19T10:49:18;21.70;99.90
2955;DHT22;1487;51.470;6.938;2023-09-19T10:51:46;22.50;99.90
2955;DHT22;1487;51.470;6.938;2023-09-19T10:54:17;22.60;99.90
2955;DHT22;1487;51.470;6.938;2023-09-19T10:56:48;23.10;99.90
2955;DHT22;1487;51.470;6.938;2023-09-19T10:59:17;22.90;99.90
2955;DHT22;1487;51.470;6.938;2023-09-19T11:01:46;22.30;99.90
2955;DHT22;1487;51.470;6.938;2023-09-19T11:04:24;21.70;99.90
2955;DHT22;1487;51.470;6.938;2023-09-19T11:07:03;21.90;99.90
2955;DHT22;1487;51.470;6.938;2023-09-19T11:09:47;21.90;99.90
2955;DHT22;1487;51.470;6.938;2023-09-19T11:21:53;22.60;99.90
2955;DHT22;1487;51.470;6.938;2023-09-19T11:24:28;22.60;99.90
2955;DHT22;1487;51.470;6.938;2023-09-19T11:27:13;22.50;99.90
2955;DHT22;1487;51.470;6.938;2023-09-19T11:29:40;22.10;99.90
2955;DHT22;1487;51.470;6.938;2023-09-19T11:32:07;22.00;99.90
2955;DHT22;1487;51.470;6.938;2023-09-19T11:34:39;22.20;99.90
2955;DHT22;1487;51.470;6.938;2023-09-19T11:40:34;22.90;99.90
2955;DHT22;1487;51.470;6.938;2023-09-19T11:43:28;22.70;99.90
2955;DHT22;1487;51.470;6.938;2023-09-19T11:46:08;21.30;99.90
2955;DHT22;1487;51.470;6.938;2023-09-19T11:48:38;21.50;99.90
2955;DHT22;1487;51.470;6.938;2023-09-19T11:51:11;22.20;99.90
2955;DHT22;1487;51.470;6.938;2023-09-19T11:53:45;22.50;99.90
2955;DHT22;1487;51.470;6.938;2023-09-19T11:56:16;22.20;99.90
2955;DHT22;1487;51.470;6.938;2023-09-19T11:58:44;22.40;99.90
2955;DHT22;1487;51.470;6.938;2023-09-19T12:01:13;22.70;99.90
2955;DHT22;1487;51.470;6.938;2023-09-19T12:03:46;22.50;99.90
2955;DHT22;1487;51.470;6.938;2023-09-19T12:06:15;22.00;99.90
2955;DHT22;1487;51.470;6.938;2023-09-19T12:08:43;21.50;99.90
2955;DHT22;1487;51.470;6.938;2023-09-19T12:11:16;21.30;99.90
2955;DHT22;1487;51.470;6.938;2023-09-19T12:13:45;21.20;99.90
2955;DHT22;1487;51.470;6.938;2023-09-19T12:16:15;21.20;99.90
2955;DHT22;1487;51.470;6.938;2023-09-19T12:18:43;21.70;99.90
2955;DHT22;1487;51.470;6.938;2023-09-19T12:21:22;22.50;99.90
2955;DHT22;1487;51.470;6.938;2023-09-19T12:24:07;23.20;99.90
2955;DHT22;1487;51.470;6.938;2023-09-19T12:26:42;23.00;99.90
2955;DHT22;1487;51.470;6.938;2023-09-19T12:29:13;23.10;98.40
2955;DHT22;1487;51.470;6.938;2023-09-19T12:31:52;23.10;98.70
2955;DHT22;1487;51.470;6.938;2023-09-19T12:34:22;23.40;97.20
2955;DHT22;1487;51.470;6.938;2023-09-19T12:37:04;23.50;97.30
2955;DHT22;1487;51.470;6.938;2023-09-19T12:39:37;23.70;95.10
2955;DHT22;1487;51.470;6.938;2023-09-19T12:42:05;23.40;94.80
2955;DHT22;1487;51.470;6.938;2023-09-19T12:44:34;23.20;93.70
2955;DHT22;1487;51.470;6.938;2023-09-19T12:47:09;22.60;94.80
2955;DHT22;1487;51.470;6.938;2023-09-19T12:49:36;22.80;95.30
2955;DHT22;1487;51.470;6.938;2023-09-19T12:52:03;22.90;98.30
2955;DHT22;1487;51.470;6.938;2023-09-19T12:54:38;23.10;96.30
2955;DHT22;1487;51.470;6.938;2023-09-19T12:57:06;22.60;96.40
2955;DHT22;1487;51.470;6.938;2023-09-19T12:59:33;22.60;97.20
2955;DHT22;1487;51.470;6.938;2023-09-19T13:02:04;22.50;95.50
2955;DHT22;1487;51.470;6.938;2023-09-19T13:04:33;22.90;95.80
2955;DHT22;1487;51.470;6.938;2023-09-19T13:07:05;23.30;94.60
2955;DHT22;1487;51.470;6.938;2023-09-19T13:09:33;23.40;96.30
2955;DHT22;1487;51.470;6.938;2023-09-19T13:12:00;22.60;95.00
2955;DHT22;1487;51.470;6.938;2023-09-19T13:14:30;22.20;95.90
2955;DHT22;1487;51.470;6.938;2023-09-19T13:17:01;22.20;95.60
2955;DHT22;1487;51.470;6.938;2023-09-19T13:19:44;22.00;96.30
2955;DHT22;1487;51.470;6.938;2023-09-19T13:22:36;22.00;97.00
2955;DHT22;1487;51.470;6.938;2023-09-19T13:25:05;22.50;97.00
2955;DHT22;1487;51.470;6.938;2023-09-19T13:27:33;22.40;95.80
2955;DHT22;1487;51.470;6.938;2023-09-19T13:30:02;22.30;96.80
2955;DHT22;1487;51.470;6.938;2023-09-19T13:32:32;22.80;98.60
2955;DHT22;1487;51.470;6.938;2023-09-19T13:34:59;23.20;96.50
2955;DHT22;1487;51.470;6.938;2023-09-19T13:37:25;23.10;95.50
2955;DHT22;1487;51.470;6.938;2023-09-19T13:39:52;22.50;96.40
2955;DHT22;1487;51.470;6.938;2023-09-19T13:42:19;21.60;98.30
2955;DHT22;1487;51.470;6.938;2023-09-19T13:44:47;21.20;99.30
2955;DHT22;1487;51.470;6.938;2023-09-19T13:47:15;20.90;99.90
2955;DHT22;1487;51.470;6.938;2023-09-19T13:49:42;20.70;99.90
2955;DHT22;1487;51.470;6.938;2023-09-19T13:52:09;20.50;99.90
2955;DHT22;1487;51.470;6.938;2023-09-19T13:54:38;20.40;99.90
2955;DHT22;1487;51.470;6.938;2023-09-19T13:57:05;20.20;99.90
2955;DHT22;1487;51.470;6.938;2023-09-19T13:59:33;20.00;99.90
2955;DHT22;1487;51.470;6.938;2023-09-19T14:01:59;19.90;99.90
2955;DHT22;1487;51.470;6.938;2023-09-19T14:04:29;19.80;99.90
2955;DHT22;1487;51.470;6.938;2023-09-19T14:06:56;19.80;99.90
2955;DHT22;1487;51.470;6.938;2023-09-19T14:09:23;19.90;99.90
2955;DHT22;1487;51.470;6.938;2023-09-19T14:11:50;19.80;99.90
2955;DHT22;1487;51.470;6.938;2023-09-19T14:14:18;19.90;99.90
2955;DHT22;1487;51.470;6.938;2023-09-19T14:16:45;19.80;99.90
2955;DHT22;1487;51.470;6.938;2023-09-19T14:19:12;19.90;99.90
2955;DHT22;1487;51.470;6.938;2023-09-19T14:21:43;20.00;99.90
2955;DHT22;1487;51.470;6.938;2023-09-19T14:24:10;20.10;99.90
2955;DHT22;1487;51.470;6.938;2023-09-19T14:26:37;19.90;99.90
2955;DHT22;1487;51.470;6.938;2023-09-19T14:29:04;19.90;99.90
2955;DHT22;1487;51.470;6.938;2023-09-19T14:31:33;19.80;99.90
2955;DHT22;1487;51.470;6.938;2023-09-19T14:34:00;19.70;99.90
2955;DHT22;1487;51.470;6.938;2023-09-19T14:36:28;19.60;99.90
2955;DHT22;1487;51.470;6.938;2023-09-19T14:38:56;19.70;99.90
2955;DHT22;1487;51.470;6.938;2023-09-19T14:41:23;19.70;99.90
2955;DHT22;1487;51.470;6.938;2023-09-19T14:43:51;19.80;99.90
2955;DHT22;1487;51.470;6.938;2023-09-19T14:46:18;19.80;99.90
2955;DHT22;1487;51.470;6.938;2023-09-19T14:48:45;19.70;99.90
2955;DHT22;1487;51.470;6.938;2023-09-19T14:51:13;19.80;99.90
2955;DHT22;1487;51.470;6.938;2023-09-19T14:53:40;19.70;99.90
2955;DHT22;1487;51.470;6.938;2023-09-19T14:56:09;19.50;99.90
2955;DHT22;1487;51.470;6.938;2023-09-19T14:58:36;19.50;99.90
2955;DHT22;1487;51.470;6.938;2023-09-19T15:01:06;19.50;99.90
2955;DHT22;1487;51.470;6.938;2023-09-19T15:03:34;19.50;99.90
2955;DHT22;1487;51.470;6.938;2023-09-19T15:06:02;19.50;99.90
2955;DHT22;1487;51.470;6.938;2023-09-19T15:08:30;19.40;99.90
2955;DHT22;1487;51.470;6.938;2023-09-19T15:10:57;19.30;99.90
2955;DHT22;1487;51.470;6.938;2023-09-19T15:13:25;19.20;99.90
2955;DHT22;1487;51.470;6.938;2023-09-19T15:15:58;19.30;99.90
2955;DHT22;1487;51.470;6.938;2023-09-19T15:18:26;19.30;99.90
2955;DHT22;1487;51.470;6.938;2023-09-19T15:20:53;19.20;99.90
2955;DHT22;1487;51.470;6.938;2023-09-19T15:23:20;19.20;99.90
2955;DHT22;1487;51.470;6.938;2023-09-19T15:25:48;19.20;99.90
2955;DHT22;1487;51.470;6.938;2023-09-19T15:28:15;19.20;99.90
2955;DHT22;1487;51.470;6.938;2023-09-19T15:30:43;19.20;99.90
2955;DHT22;1487;51.470;6.938;2023-09-19T15:33:10;19.20;99.90
2955;DHT22;1487;51.470;6.938;2023-09-19T15:35:37;19.20;99.90
2955;DHT22;1487;51.470;6.938;2023-09-19T15:38:04;19.30;99.90
2955;DHT22;1487;51.470;6.938;2023-09-19T15:40:31;19.30;99.90
2955;DHT22;1487;51.470;6.938;2023-09-19T15:42:58;19.40;99.90
2955;DHT22;1487;51.470;6.938;2023-09-19T15:45:25;19.40;99.90
2955;DHT22;1487;51.470;6.938;2023-09-19T15:47:53;19.50;99.90
2955;DHT22;1487;51.470;6.938;2023-09-19T15:50:20;19.60;99.90
2955;DHT22;1487;51.470;6.938;2023-09-19T15:52:53;19.70;99.90
2955;DHT22;1487;51.470;6.938;2023-09-19T15:55:20;19.70;99.90
2955;DHT22;1487;51.470;6.938;2023-09-19T15:57:47;19.60;99.90
2955;DHT22;1487;51.470;6.938;2023-09-19T16:00:15;19.50;99.90
2955;DHT22;1487;51.470;6.938;2023-09-19T16:02:43;19.30;99.90
2955;DHT22;1487;51.470;6.938;2023-09-19T16:05:13;19.20;99.90
2955;DHT22;1487;51.470;6.938;2023-09-19T16:07:40;19.20;99.90
2955;DHT22;1487;51.470;6.938;2023-09-19T16:10:07;19.10;99.90
2955;DHT22;1487;51.470;6.938;2023-09-19T16:12:34;19.10;99.90
2955;DHT22;1487;51.470;6.938;2023-09-19T16:15:03;19.00;99.90
2955;DHT22;1487;51.470;6.938;2023-09-19T16:17:30;19.00;99.90
2955;DHT22;1487;51.470;6.938;2023-09-19T16:19:56;18.90;99.90
2955;DHT22;1487;51.470;6.938;2023-09-19T16:22:25;18.90;99.90
2955;DHT22;1487;51.470;6.938;2023-09-19T16:24:52;18.90;99.90
2955;DHT22;1487;51.470;6.938;2023-09-19T16:27:19;18.90;99.90
2955;DHT22;1487;51.470;6.938;2023-09-19T16:29:47;18.80;99.90
2955;DHT22;1487;51.470;6.938;2023-09-19T16:32:15;18.80;99.90